Уакит

Карта отелей и гостиниц, располагающихся рядом с аэропортом Уакит :

Уакит Бурятия 55° 28' 47.9388" N, 113° 38' 35.8188" E
Код аэродрома ИКАО
UIUT
Код аэродрома RU
УИУТ
Координаты
N55.47998° E113.64328°
Превышение над уровнем моря
1070
Основная полоса
17/35
Курс магнитный
171,6/351,6
Длина основной ВПП
700
Ширина основной ВПП
70
Покрытие основной ВПП
Нетвёрдое (грунт)
Освещение ВПП
Нет
Тип: 
Аэродром
Класс аэродрома: 
Принадлежность: 
ГА
Статус: 
Действующий
Сайт: 
E-mail аэродрома: 
akpanh@mail.ru
Страна: 
Россия
Регион: 
Бурятия
Город: 
Дополнительная информация: 
Горный. Оператор: ООО "Авиакомпания "ПАНХ", г. Улан-Удэ, ул. Бабушкина, 14а.

Найти трансфер

С помощью этой формы Вы можете найти трансфер из аэропорта Уакит в город, аэропорт или вокзал:

Карта места

Javascript is required to view this map.

Погода в аэропортах:

Авиационная погода в Брянске

Регион: 
Погода METAR: 
UUBP 171830Z AUTO 07005MPS 9999 -DZ 07/07 Q1015 RMK QFE744/0992
Время наблюдения
2021-09-17T18:30:00Z
Температура C
7.0
Точка росы
7.0
Направление ветра
70
Скорость ветра (узлы)
10
Метео видимость
6.21
Явления погоды
-DZ
Условия полета
Аэропорт подробнее: 

Авиационная погода в аэропорту Международный

Регион: 
Погода METAR: 
UKLL 171630Z 01004MPS 3600 -SHRA BKN004 BKN030CB 17/16 Q1005 R31/290055 NOSIG
Время наблюдения
2021-09-17T16:30:00Z
Температура C
17.0
Точка росы
16.0
Направление ветра
10
Скорость ветра (узлы)
8
Метео видимость
2.24
Явления погоды
-SHRA
Условия полета
LIFR
Аэропорт подробнее: 

Авиационная погода в Воронеже

Регион: 
Погода METAR: 
UUOO 171830Z 07003MPS 9999 -SHRA BKN///CB 10/07 Q1017 R12/290160 NOSIG RMK QFE749
Время наблюдения
2021-09-17T18:30:00Z
Температура C
10.0
Точка росы
7.0
Направление ветра
70
Скорость ветра (узлы)
6
Метео видимость
6.21
Явления погоды
-SHRA
Условия полета
Аэропорт подробнее: 

Авиационная погода в аэропорту Новый

Регион: 
Погода METAR: 
UHHH 171830Z 24004MPS 9999 -SHRA FEW034CB 15/12 Q1009 R23R/190050 TEMPO 3100 -TSRA RMK QFE750/1001
Время наблюдения
2021-09-17T18:30:00Z
Температура C
15.0
Точка росы
12.0
Направление ветра
240
Скорость ветра (узлы)
8
Метео видимость
6.21
Явления погоды
-SHRA
Условия полета
VFR
Аэропорт подробнее: